Latest Weather Observations for Portland Airport

IDV60801

Issued at 5:02 pm EDT Wednesday 22 February 2017 (issued every 30 minutes, with the page automatically refreshed every 10 minutes)

About weather observations | Map of weather stations | Latest weather observations for VIC | Other Formats
Station Details ID: 090171 Name: CASHMORE AIRPORT Lat: -38.31 Lon: 141.47 Height: 80.9 m
Data from the previous 72 hours. | See also: Recent months at Portland Airport
Date/Time
EDT
Temp
°C
App
Temp
°C
Dew
Point
°C
Rel
Hum
%
Delta-T
°C
Wind Press
QNH
hPa
Press
MSL
hPa
Rain since
9am
mm
Dir  Spd
km/h
Gust
km/h
Spd
kts
Gust
kts
22/04:33pm 20.8 13.3 12.2 58 4.9 W 43 63 23 34 1005.9 1005.7 0.0
22/04:30pm 21.1 14.6 12.8 59 4.7 W 39 56 21 30 1005.8 1005.6 0.0
22/04:05pm 21.2 14.9 13.6 62 4.4 W 39 57 21 31 1005.8 1005.6 0.0
22/04:00pm 21.6 15.4 13.8 61 4.5 W 39 56 21 30 1006.1 1005.9 0.0
22/03:30pm 23.1 16.1 13.8 55 5.4 W 43 61 23 33 1005.8 1005.6 0.0
22/03:15pm 24.6 18.0 11.2 43 7.6 WNW 37 69 20 37 1005.9 1005.7 0.0
22/03:12pm 27.5 21.6 11.1 36 9.4 NW 33 48 18 26 1005.8 1005.6 0.0
22/03:00pm 32.6 25.1 3.5 16 15.1 NNW 32 50 17 27 1005.3 1005.1 0.0
22/02:30pm 32.0 24.2 3.1 16 14.8 NNW 33 54 18 29 1005.9 1005.7 0.0
22/02:00pm 31.7 24.0 5.3 19 14.0 NNW 35 56 19 30 1006.4 1006.2 0.0
22/01:52pm 30.9 23.3 3.8 18 13.9 N 33 52 18 28 1006.6 1006.4 0.0
22/01:30pm 29.8 23.2 4.4 20 13.1 N 28 44 15 24 1006.9 1006.7 0.0
22/01:00pm 28.3 21.8 4.6 22 12.2 N 28 46 15 25 1007.7 1007.5 0.0
22/12:31pm 28.1 20.3 5.0 23 11.9 N 35 54 19 29 1008.1 1007.9 0.0
22/12:30pm 28.0 19.7 4.3 22 12.1 N 37 54 20 29 1008.1 1007.9 0.0
22/12:19pm 27.6 20.1 3.3 21 12.1 N 32 56 17 30 1008.3 1008.1 0.0
22/12:00pm 27.3 20.0 4.4 23 11.7 N 32 44 17 24 1008.5 1008.3 0.0
22/11:30am 27.1 19.3 4.8 24 11.4 N 35 54 19 29 1008.5 1008.3 0.0
22/11:07am 26.3 19.8 4.7 25 11.0 N 28 54 15 29 1008.8 1008.6 0.0
22/11:00am 26.2 20.0 6.3 28 10.4 N 28 44 15 24 1008.9 1008.7 0.0
22/10:41am 24.9 18.4 4.6 27 10.2 N 28 46 15 25 1009.1 1008.9 0.0
22/10:30am 24.5 18.8 6.7 32 9.3 N 26 41 14 22 1009.4 1009.2 0.0
22/10:00am 21.4 15.9 6.1 37 7.7 NNE 24 37 13 20 1009.8 1009.7 0.0
22/09:30am 20.7 15.7 6.6 40 7.2 NNE 22 32 12 17 1010.3 1010.2 0.0
22/09:00am 19.6 14.6 6.4 42 6.6 N 22 32 12 17 1010.8 1010.7 0.0
22/08:30am 18.0 13.3 6.2 46 5.8 N 20 35 11 19 1010.9 1010.8 0.0
22/08:00am 16.4 11.8 5.7 49 5.2 N 19 28 10 15 1010.7 1010.6 0.0
22/07:30am 14.7 10.5 5.8 55 4.3 N 17 20 9 11 1010.8 1010.7 0.0
22/07:00am 13.5 9.7 5.7 59 3.7 N 15 20 8 11 1010.8 1010.7 0.0
22/06:30am 14.3 10.3 6.6 60 3.7 NNE 17 24 9 13 1010.8 1010.7 0.0
22/06:00am 13.7 9.8 7.2 65 3.2 NNE 17 22 9 12 1010.8 1010.7 0.0
22/05:30am 11.4 9.1 9.1 86 1.2 NNE 11 15 6 8 1011.2 1011.1 0.0
22/05:00am 11.0 9.2 9.3 89 0.9 NNE 9 11 5 6 1011.4 1011.3 0.0
22/04:30am 10.2 9.9 8.8 91 0.7 CALM 0 9 0 5 1011.8 1011.7 0.0
22/04:00am 10.8 9.9 9.4 91 0.7 NE 4 7 2 4 1011.9 1011.8 0.0
22/03:30am 10.8 9.4 9.4 91 0.7 NE 7 9 4 5 1012.5 1012.3 0.0
22/03:00am 10.5 9.9 8.9 90 0.8 NE 2 7 1 4 1012.9 1012.7 0.0
22/02:30am 11.4 10.1 9.8 90 0.8 NE 7 9 4 5 1013.3 1013.1 0.0
22/02:00am 11.0 9.8 9.4 90 0.8 NE 6 7 3 4 1013.7 1013.5 0.0
22/01:30am 11.0 9.7 9.3 89 0.9 NE 6 7 3 4 1014.1 1013.9 0.0
22/01:00am 11.6 11.6 9.7 88 1.0 CALM 0 0 0 0 1014.6 1014.4 0.0
22/12:30am 13.3 12.4 11.4 88 1.0 NNE 7 11 4 6 1015.0 1014.8 0.0
22/12:00am 14.0 13.3 11.9 87 1.1 NE 7 11 4 6 1015.4 1015.2 0.0
 
Date/Time
EDT
Temp
°C
App
Temp
°C
Dew
Point
°C
Rel
Hum
%
Delta-T
°C
Wind Press
QNH
hPa
Press
MSL
hPa
Rain since
9am
mm
Dir  Spd
km/h
Gust
km/h
Spd
kts
Gust
kts
21/11:30pm 14.6 13.6 12.3 86 1.3 ENE 9 15 5 8 1015.6 1015.4 0.0
21/11:00pm 15.0 13.3 12.5 85 1.4 ENE 13 20 7 11 1015.9 1015.7 0.0
21/10:30pm 15.3 14.0 12.6 84 1.5 ENE 11 17 6 9 1016.3 1016.1 0.0
21/10:00pm 15.3 13.6 12.6 84 1.5 E 13 22 7 12 1016.6 1016.4 0.0
21/09:30pm 15.1 13.3 12.1 82 1.6 E 13 19 7 10 1016.7 1016.5 0.0
21/09:00pm 15.2 12.9 11.8 80 1.8 E 15 24 8 13 1016.5 1016.3 0.0
21/08:30pm 15.5 13.1 11.3 76 2.3 E 15 24 8 13 1016.5 1016.3 0.0
21/08:00pm 16.4 13.6 11.3 72 2.8 E 17 24 9 13 1016.6 1016.4 0.0
21/07:30pm 17.1 13.9 11.4 69 3.1 E 19 24 10 13 1016.5 1016.3 0.0
21/07:00pm 17.4 14.1 10.8 65 3.6 E 19 28 10 15 1016.6 1016.4 0.0
21/06:30pm 18.5 15.5 10.6 60 4.3 ESE 17 24 9 13 1016.6 1016.4 0.0
21/06:00pm 19.3 16.3 10.8 58 4.6 E 17 26 9 14 1016.8 1016.6 0.0
21/05:30pm 19.7 17.0 10.4 55 5.0 E 15 22 8 12 1017.1 1016.9 0.0
21/05:00pm 20.4 17.9 11.1 55 5.1 E 15 22 8 12 1017.3 1017.1 0.0
21/04:30pm 19.9 17.1 10.0 53 5.3 E 15 22 8 12 1017.5 1017.3 0.0
21/04:00pm 20.9 18.5 10.1 50 5.8 E 13 22 7 12 1017.8 1017.6 0.0
21/03:30pm 20.6 17.7 9.5 49 5.9 E 15 24 8 13 1018.2 1018.0 0.0
21/03:00pm 21.0 18.7 10.5 51 5.7 ESE 13 19 7 10 1018.6 1018.4 0.0
21/02:30pm 20.2 17.5 8.8 48 6.0 E 13 22 7 12 1019.1 1018.9 0.0
21/02:00pm 20.1 18.3 9.4 50 5.7 ENE 9 15 5 8 1019.5 1019.3 0.0
21/01:30pm 19.7 17.8 9.0 50 5.6 N 9 13 5 7 1019.7 1019.5 0.0
21/01:00pm 19.0 16.4 7.8 48 5.7 NNE 11 17 6 9 1020.2 1020.1 0.0
21/12:30pm 17.5 16.3 8.1 54 4.8 NE 4 9 2 5 1021.0 1020.9 0.0
21/12:00pm 18.0 16.0 8.6 54 4.9 ESE 9 17 5 9 1021.1 1021.0 0.0
21/11:30am 17.1 15.1 8.5 57 4.4 E 9 15 5 8 1021.2 1021.1 0.0
21/11:00am 17.4 16.1 9.8 61 4.0 E 7 13 4 7 1021.4 1021.3 0.0
21/10:30am 16.4 14.1 8.9 61 3.9 NE 11 15 6 8 1021.4 1021.3 0.0
21/10:00am 15.3 13.8 10.5 73 2.5 NNE 9 13 5 7 1021.3 1021.2 0.0
21/09:30am 13.9 12.6 11.4 85 1.3 NNE 9 13 5 7 1021.4 1021.3 0.0
21/09:00am 11.9 10.3 10.3 90 0.8 N 9 13 5 7 1021.1 1021.0 0.0
21/08:30am 10.1 7.7 8.7 91 0.7 N 11 13 6 7 1021.1 1021.0 0.0
21/08:00am 8.7 6.8 7.5 92 0.6 W 7 11 4 6 1021.0 1020.9 0.0
21/07:30am 7.2 6.3 6.0 92 0.5 CALM 0 0 0 0 1020.4 1020.3 0.0
21/07:00am 6.3 5.2 5.1 92 0.5 CALM 0 0 0 0 1020.1 1019.9 0.0
21/06:30am 5.1 3.7 3.8 91 0.5 CALM 0 0 0 0 1019.7 1019.5 0.0
21/06:00am 5.6 4.3 4.2 91 0.6 CALM 0 0 0 0 1019.6 1019.4 0.0
21/05:30am 6.1 4.9 4.7 91 0.6 CALM 0 0 0 0 1019.7 1019.5 0.0
21/05:00am 6.4 5.3 5.0 91 0.6 CALM 0 0 0 0 1019.4 1019.2 0.0
21/04:30am 6.9 5.9 5.5 91 0.6 CALM 0 0 0 0 1019.2 1019.0 0.0
21/04:00am 5.6 4.3 4.1 90 0.6 CALM 0 0 0 0 1019.2 1019.0 0.0
21/03:30am 6.2 5.0 4.7 90 0.7 CALM 0 0 0 0 1019.1 1018.9 0.0
21/03:00am 6.4 5.2 4.7 89 0.7 CALM 0 0 0 0 1019.3 1019.1 0.0
21/02:30am 6.4 5.2 4.7 89 0.7 CALM 0 0 0 0 1019.3 1019.1 0.0
21/02:00am 6.4 5.2 4.6 88 0.8 CALM 0 0 0 0 1019.5 1019.3 0.0
21/01:30am 7.2 6.1 5.3 88 0.8 CALM 0 0 0 0 1019.6 1019.4 0.0
21/01:00am 7.6 6.6 5.7 88 0.9 CALM 0 0 0 0 1019.6 1019.4 0.0
21/12:30am 7.7 6.7 5.7 87 0.9 CALM 0 0 0 0 1019.9 1019.7 0.0
21/12:00am 7.6 6.2 5.4 86 1.0 WSW 2 6 1 3 1019.8 1019.6 0.0
 
Date/Time
EDT
Temp
°C
App
Temp
°C
Dew
Point
°C
Rel
Hum
%
Delta-T
°C
Wind Press
QNH
hPa
Press
MSL
hPa
Rain since
9am
mm
Dir  Spd
km/h
Gust
km/h
Spd
kts
Gust
kts
20/11:30pm 8.0 7.0 5.6 85 1.1 CALM 0 0 0 0 1020.0 1019.8 0.0
20/11:00pm 8.2 7.2 5.7 84 1.1 CALM 0 0 0 0 1019.8 1019.6 0.0
20/10:30pm 8.7 7.7 5.8 82 1.3 CALM 0 0 0 0 1019.6 1019.4 0.0
20/10:00pm 9.3 7.2 5.7 78 1.6 WSW 6 7 3 4 1019.6 1019.4 0.0
20/09:30pm 10.4 9.5 6.0 74 2.0 CALM 0 4 0 2 1019.5 1019.3 0.0
20/09:00pm 11.6 9.7 6.5 71 2.4 WSW 6 6 3 3 1019.3 1019.1 0.0
20/08:30pm 13.1 11.3 7.3 68 2.8 WSW 6 9 3 5 1019.0 1018.8 0.0
20/08:00pm 14.2 11.9 7.5 64 3.3 SW 9 13 5 7 1018.6 1018.4 0.0
20/07:30pm 15.0 12.4 7.8 62 3.6 SSW 11 17 6 9 1018.3 1018.1 0.0
20/07:00pm 15.3 12.3 7.6 60 3.8 SSW 13 20 7 11 1017.8 1017.6 0.0
20/06:30pm 15.3 12.3 7.8 61 3.8 SW 13 20 7 11 1017.6 1017.4 0.0
20/06:00pm 15.7 12.2 8.7 63 3.6 SW 17 24 9 13 1017.5 1017.3 0.0
20/05:30pm 16.2 12.5 7.9 58 4.2 SW 17 26 9 14 1017.3 1017.1 0.0
20/05:00pm 16.5 12.9 8.5 59 4.1 SSW 17 28 9 15 1017.1 1016.9 0.0
20/04:30pm 15.9 11.4 7.1 56 4.4 SSW 20 30 11 16 1016.9 1016.7 0.0
20/04:00pm 17.5 12.8 7.8 53 4.9 SW 22 30 12 16 1017.0 1016.8 0.0
20/03:30pm 16.5 12.4 8.5 59 4.1 SSW 20 33 11 18 1016.9 1016.7 0.0
20/03:00pm 16.8 12.5 7.7 55 4.6 SW 20 30 11 16 1016.9 1016.7 0.0
20/02:30pm 17.1 12.8 9.5 61 4.0 SW 22 35 12 19 1016.9 1016.7 0.0
20/02:00pm 16.4 12.1 7.9 57 4.3 SW 20 33 11 18 1017.0 1016.8 0.0
20/01:30pm 17.5 13.0 7.0 50 5.3 WSW 20 28 11 15 1016.8 1016.6 0.0
20/01:00pm 16.3 11.4 6.7 53 4.7 SW 22 33 12 18 1016.9 1016.7 0.0
20/12:30pm 16.8 12.7 8.8 59 4.1 SW 20 32 11 17 1017.0 1016.8 0.0
20/12:00pm 16.2 12.4 9.2 63 3.6 SSW 19 30 10 16 1017.0 1016.8 0.0
20/11:30am 15.1 11.0 8.6 65 3.3 SW 20 26 11 14 1017.0 1016.8 0.0
20/11:00am 15.0 11.4 8.3 64 3.4 SW 17 24 9 13 1016.9 1016.7 0.0
20/10:30am 13.7 11.5 9.2 74 2.3 S 11 19 6 10 1016.8 1016.6 0.0
20/10:00am 13.9 9.8 8.5 70 2.7 SSW 20 37 11 20 1016.6 1016.4 0.0
20/09:30am 14.4 11.2 8.4 67 3.0 SW 15 22 8 12 1016.2 1016.0 0.0
20/09:00am 13.1 9.9 8.6 74 2.3 SW 15 22 8 12 1016.0 1015.8 2.0
20/08:30am 14.3 11.1 8.5 68 2.9 SW 15 26 8 14 1015.7 1015.5 2.0
20/08:00am 13.7 10.4 8.1 69 2.8 SW 15 22 8 12 1015.1 1014.9 2.0
20/07:30am 13.5 9.8 7.9 69 2.8 SW 17 28 9 15 1014.8 1014.6 2.0
20/07:00am 13.6 9.9 8.0 69 2.8 SW 17 26 9 14 1014.4 1014.2 2.0
20/06:30am 13.5 9.8 8.1 70 2.7 SW 17 24 9 13 1014.2 1014.0 2.0
20/06:00am 13.4 10.0 7.8 69 2.8 SW 15 26 8 14 1013.9 1013.7 2.0
20/05:30am 13.4 9.7 7.8 69 2.8 SW 17 24 9 13 1013.9 1013.7 2.0
20/05:00am 13.1 9.4 8.0 71 2.5 SW 17 24 9 13 1013.7 1013.5 2.0
20/04:30am 13.5 9.7 7.5 67 3.0 SSW 17 30 9 16 1013.7 1013.5 2.0
20/04:00am 13.5 9.3 7.3 66 3.0 SSW 19 32 10 17 1013.6 1013.4 2.0
20/03:30am 13.3 9.5 7.5 68 2.8 SSW 17 26 9 14 1013.6 1013.4 2.0
20/03:00am 13.3 9.7 8.2 71 2.5 SSW 17 30 9 16 1013.6 1013.4 2.0
20/02:30am 12.8 9.9 8.1 73 2.3 SW 13 20 7 11 1013.6 1013.4 2.0
20/02:00am 13.1 8.8 8.0 71 2.5 SSW 20 30 11 16 1013.7 1013.5 2.0
20/01:30am 12.6 9.6 9.4 81 1.6 SW 15 24 8 13 1013.8 1013.6 2.0
20/01:00am 12.0 9.5 9.6 85 1.2 SW 13 24 7 13 1013.7 1013.5 2.0
20/12:30am 11.7 9.8 9.1 84 1.3 SW 9 15 5 8 1013.8 1013.6 2.0
20/12:00am 12.3 9.1 8.6 78 1.8 SSW 15 26 8 14 1014.0 1013.8 1.6
 
Date/Time
EDT
Temp
°C
App
Temp
°C
Dew
Point
°C
Rel
Hum
%
Delta-T
°C
Wind Press
QNH
hPa
Press
MSL
hPa
Rain since
9am
mm
Dir  Spd
km/h
Gust
km/h
Spd
kts
Gust
kts
19/11:30pm 12.7 8.3 7.4 70 2.6 SW 20 37 11 20 1013.8 1013.6 1.6
19/11:00pm 13.2 8.6 8.1 71 2.5 SW 22 35 12 19 1013.8 1013.6 1.6
19/10:30pm 13.0 8.3 7.7 70 2.6 SW 22 35 12 19 1013.8 1013.6 1.6
19/10:00pm 12.1 8.1 8.2 77 1.9 SW 19 30 10 16 1013.7 1013.5 1.6
19/09:30pm 13.0 8.2 7.5 69 2.7 SW 22 35 12 19 1013.5 1013.3 1.6
19/09:00pm 13.0 8.9 7.9 71 2.5 SW 19 30 10 16 1013.1 1012.9 1.6
19/08:30pm 12.9 7.4 7.6 70 2.6 SW 26 37 14 20 1012.9 1012.7 1.6
19/08:00pm 13.1 8.3 7.5 69 2.7 SW 22 35 12 19 1012.5 1012.3 1.6
19/07:30pm 13.7 9.5 8.1 69 2.8 SW 20 33 11 18 1012.1 1012.0 1.6
19/07:00pm 13.3 7.7 7.3 67 2.9 SW 26 39 14 21 1011.9 1011.8 1.6
19/06:30pm 13.1 8.1 8.0 71 2.5 SW 24 37 13 20 1011.8 1011.7 1.6
19/06:00pm 12.9 7.9 8.0 72 2.4 SW 24 37 13 20 1011.7 1011.6 1.2
19/05:30pm 14.4 8.9 7.7 64 3.3 SSW 26 43 14 23 1011.4 1011.3 1.2

Other Formats:

Comma delimited format used in spreadsheet applications
http://www.bom.gov.au/fwo/IDV60801/IDV60801.94828.axf

JavaScript Object Notation format (JSON) in row-major order
http://www.bom.gov.au/fwo/IDV60801/IDV60801.94828.json